sensor_id;sensor_type;location;lat;lon;timestamp;P1;durP1;ratioP1;P2;durP2;ratioP2
54881;SDS011;40775;51.448;4.742;2022-07-29T00:01:39;1.50;;;1.00;;
54881;SDS011;40775;51.448;4.742;2022-07-29T00:04:07;2.55;;;1.13;;
54881;SDS011;40775;51.448;4.742;2022-07-29T00:06:35;2.65;;;1.10;;
54881;SDS011;40775;51.448;4.742;2022-07-29T00:09:02;2.08;;;1.08;;
54881;SDS011;40775;51.448;4.742;2022-07-29T00:11:30;2.72;;;1.10;;
54881;SDS011;40775;51.448;4.742;2022-07-29T00:13:57;1.92;;;1.02;;
54881;SDS011;40775;51.448;4.742;2022-07-29T00:16:25;2.00;;;0.95;;
54881;SDS011;40775;51.448;4.742;2022-07-29T00:18:52;2.38;;;1.10;;
54881;SDS011;40775;51.448;4.742;2022-07-29T00:21:19;2.90;;;1.10;;
54881;SDS011;40775;51.448;4.742;2022-07-29T00:23:47;2.40;;;1.25;;
54881;SDS011;40775;51.448;4.742;2022-07-29T00:26:14;2.30;;;0.90;;
54881;SDS011;40775;51.448;4.742;2022-07-29T00:28:42;1.80;;;0.80;;
54881;SDS011;40775;51.448;4.742;2022-07-29T00:31:09;2.25;;;0.88;;
54881;SDS011;40775;51.448;4.742;2022-07-29T00:33:37;2.00;;;0.90;;
54881;SDS011;40775;51.448;4.742;2022-07-29T00:36:04;2.10;;;0.95;;
54881;SDS011;40775;51.448;4.742;2022-07-29T00:38:32;2.03;;;0.98;;
54881;SDS011;40775;51.448;4.742;2022-07-29T00:40:59;3.15;;;1.10;;
54881;SDS011;40775;51.448;4.742;2022-07-29T00:43:26;1.53;;;0.70;;
54881;SDS011;40775;51.448;4.742;2022-07-29T00:45:54;2.20;;;1.00;;
54881;SDS011;40775;51.448;4.742;2022-07-29T00:48:21;2.38;;;1.10;;
54881;SDS011;40775;51.448;4.742;2022-07-29T00:50:49;3.10;;;1.00;;
54881;SDS011;40775;51.448;4.742;2022-07-29T00:53:17;2.08;;;0.70;;
54881;SDS011;40775;51.448;4.742;2022-07-29T00:55:47;1.90;;;0.80;;
54881;SDS011;40775;51.448;4.742;2022-07-29T00:58:14;2.00;;;0.85;;
54881;SDS011;40775;51.448;4.742;2022-07-29T01:00:42;1.42;;;0.90;;
54881;SDS011;40775;51.448;4.742;2022-07-29T01:03:10;5.40;;;0.80;;
54881;SDS011;40775;51.448;4.742;2022-07-29T01:05:38;1.50;;;0.90;;
54881;SDS011;40775;51.448;4.742;2022-07-29T01:08:16;1.55;;;0.70;;
54881;SDS011;40775;51.448;4.742;2022-07-29T01:10:44;2.25;;;0.80;;
54881;SDS011;40775;51.448;4.742;2022-07-29T01:13:13;1.50;;;0.70;;
54881;SDS011;40775;51.448;4.742;2022-07-29T01:16:03;3.25;;;0.80;;
54881;SDS011;40775;51.448;4.742;2022-07-29T01:18:40;1.30;;;0.73;;
54881;SDS011;40775;51.448;4.742;2022-07-29T01:29:30;1.52;;;0.70;;
54881;SDS011;40775;51.448;4.742;2022-07-29T01:32:13;1.77;;;0.80;;
54881;SDS011;40775;51.448;4.742;2022-07-29T01:37:39;1.58;;;0.75;;
54881;SDS011;40775;51.448;4.742;2022-07-29T01:40:24;1.23;;;0.60;;
54881;SDS011;40775;51.448;4.742;2022-07-29T01:42:56;1.60;;;0.80;;
54881;SDS011;40775;51.448;4.742;2022-07-29T01:45:28;1.45;;;0.60;;
54881;SDS011;40775;51.448;4.742;2022-07-29T01:48:05;1.55;;;0.77;;
54881;SDS011;40775;51.448;4.742;2022-07-29T01:51:04;1.35;;;0.70;;
54881;SDS011;40775;51.448;4.742;2022-07-29T01:53:55;1.88;;;0.70;;
54881;SDS011;40775;51.448;4.742;2022-07-29T01:56:55;2.00;;;0.90;;
54881;SDS011;40775;51.448;4.742;2022-07-29T01:59:25;1.60;;;0.60;;
54881;SDS011;40775;51.448;4.742;2022-07-29T02:01:54;2.38;;;0.80;;
54881;SDS011;40775;51.448;4.742;2022-07-29T02:04:24;1.10;;;0.60;;
54881;SDS011;40775;51.448;4.742;2022-07-29T02:06:57;1.63;;;0.73;;
54881;SDS011;40775;51.448;4.742;2022-07-29T02:09:28;2.03;;;0.65;;
54881;SDS011;40775;51.448;4.742;2022-07-29T02:11:59;1.35;;;0.60;;
54881;SDS011;40775;51.448;4.742;2022-07-29T02:14:30;1.48;;;0.65;;
54881;SDS011;40775;51.448;4.742;2022-07-29T02:17:03;1.60;;;0.70;;
54881;SDS011;40775;51.448;4.742;2022-07-29T02:19:31;1.43;;;0.70;;
54881;SDS011;40775;51.448;4.742;2022-07-29T02:22:00;1.10;;;0.57;;
54881;SDS011;40775;51.448;4.742;2022-07-29T02:24:28;1.15;;;0.60;;
54881;SDS011;40775;51.448;4.742;2022-07-29T02:26:57;1.17;;;0.60;;
54881;SDS011;40775;51.448;4.742;2022-07-29T02:29:27;1.10;;;0.50;;
54881;SDS011;40775;51.448;4.742;2022-07-29T02:31:57;4.70;;;0.60;;
54881;SDS011;40775;51.448;4.742;2022-07-29T02:34:27;1.08;;;0.52;;
54881;SDS011;40775;51.448;4.742;2022-07-29T02:36:55;2.00;;;0.70;;
54881;SDS011;40775;51.448;4.742;2022-07-29T02:39:23;1.37;;;0.67;;
54881;SDS011;40775;51.448;4.742;2022-07-29T02:41:55;1.43;;;0.73;;
54881;SDS011;40775;51.448;4.742;2022-07-29T02:44:29;0.77;;;0.50;;
54881;SDS011;40775;51.448;4.742;2022-07-29T02:52:54;1.30;;;0.77;;
54881;SDS011;40775;51.448;4.742;2022-07-29T02:58:58;2.63;;;0.77;;
54881;SDS011;40775;51.448;4.742;2022-07-29T03:03:55;1.88;;;0.70;;
54881;SDS011;40775;51.448;4.742;2022-07-29T03:06:23;1.77;;;0.70;;
54881;SDS011;40775;51.448;4.742;2022-07-29T03:09:04;1.33;;;0.55;;
54881;SDS011;40775;51.448;4.742;2022-07-29T03:11:39;1.97;;;0.87;;
54881;SDS011;40775;51.448;4.742;2022-07-29T03:14:16;1.42;;;0.70;;
54881;SDS011;40775;51.448;4.742;2022-07-29T03:16:46;1.60;;;0.70;;
54881;SDS011;40775;51.448;4.742;2022-07-29T03:19:14;1.73;;;0.70;;
54881;SDS011;40775;51.448;4.742;2022-07-29T03:21:42;1.40;;;0.73;;
54881;SDS011;40775;51.448;4.742;2022-07-29T03:24:09;1.63;;;0.70;;
54881;SDS011;40775;51.448;4.742;2022-07-29T03:26:50;1.10;;;0.70;;
54881;SDS011;40775;51.448;4.742;2022-07-29T03:29:17;3.30;;;0.80;;
54881;SDS011;40775;51.448;4.742;2022-07-29T03:31:45;2.80;;;0.82;;
54881;SDS011;40775;51.448;4.742;2022-07-29T03:34:13;2.33;;;0.70;;
54881;SDS011;40775;51.448;4.742;2022-07-29T03:36:41;3.85;;;0.80;;
54881;SDS011;40775;51.448;4.742;2022-07-29T03:39:09;1.10;;;0.68;;
54881;SDS011;40775;51.448;4.742;2022-07-29T03:41:40;1.52;;;0.75;;
54881;SDS011;40775;51.448;4.742;2022-07-29T03:44:10;2.03;;;0.50;;
54881;SDS011;40775;51.448;4.742;2022-07-29T03:46:40;1.23;;;0.60;;
54881;SDS011;40775;51.448;4.742;2022-07-29T03:49:09;2.22;;;0.70;;
54881;SDS011;40775;51.448;4.742;2022-07-29T03:51:40;1.85;;;0.70;;
54881;SDS011;40775;51.448;4.742;2022-07-29T03:54:08;1.17;;;0.65;;
54881;SDS011;40775;51.448;4.742;2022-07-29T03:56:38;1.40;;;0.40;;
54881;SDS011;40775;51.448;4.742;2022-07-29T03:59:06;3.72;;;0.80;;
54881;SDS011;40775;51.448;4.742;2022-07-29T04:01:35;1.98;;;0.80;;
54881;SDS011;40775;51.448;4.742;2022-07-29T04:04:05;2.45;;;0.80;;
54881;SDS011;40775;51.448;4.742;2022-07-29T04:06:39;2.55;;;0.98;;
54881;SDS011;40775;51.448;4.742;2022-07-29T04:09:08;2.42;;;0.60;;
54881;SDS011;40775;51.448;4.742;2022-07-29T04:11:39;1.10;;;0.70;;
54881;SDS011;40775;51.448;4.742;2022-07-29T04:14:28;2.10;;;0.70;;
54881;SDS011;40775;51.448;4.742;2022-07-29T04:16:55;0.88;;;0.60;;
54881;SDS011;40775;51.448;4.742;2022-07-29T04:19:23;2.47;;;0.85;;
54881;SDS011;40775;51.448;4.742;2022-07-29T04:21:50;2.27;;;0.90;;
54881;SDS011;40775;51.448;4.742;2022-07-29T04:24:18;1.63;;;0.73;;
54881;SDS011;40775;51.448;4.742;2022-07-29T04:26:46;4.00;;;0.73;;
54881;SDS011;40775;51.448;4.742;2022-07-29T04:29:14;2.33;;;1.10;;
54881;SDS011;40775;51.448;4.742;2022-07-29T04:31:42;3.80;;;0.73;;
54881;SDS011;40775;51.448;4.742;2022-07-29T04:34:10;1.02;;;0.60;;
54881;SDS011;40775;51.448;4.742;2022-07-29T04:36:39;1.60;;;0.57;;
54881;SDS011;40775;51.448;4.742;2022-07-29T04:39:06;1.42;;;0.60;;
54881;SDS011;40775;51.448;4.742;2022-07-29T04:41:34;2.55;;;0.60;;
54881;SDS011;40775;51.448;4.742;2022-07-29T04:44:02;2.53;;;0.83;;
54881;SDS011;40775;51.448;4.742;2022-07-29T04:46:37;2.03;;;0.70;;
54881;SDS011;40775;51.448;4.742;2022-07-29T04:49:05;2.17;;;0.70;;
54881;SDS011;40775;51.448;4.742;2022-07-29T04:51:33;4.00;;;0.80;;
54881;SDS011;40775;51.448;4.742;2022-07-29T04:54:01;1.90;;;0.80;;
54881;SDS011;40775;51.448;4.742;2022-07-29T04:56:28;1.40;;;0.60;;
54881;SDS011;40775;51.448;4.742;2022-07-29T04:58:56;2.17;;;0.60;;
54881;SDS011;40775;51.448;4.742;2022-07-29T05:01:23;1.42;;;0.77;;
54881;SDS011;40775;51.448;4.742;2022-07-29T05:03:51;1.75;;;0.70;;
54881;SDS011;40775;51.448;4.742;2022-07-29T05:06:25;2.40;;;0.60;;
54881;SDS011;40775;51.448;4.742;2022-07-29T05:08:52;1.50;;;0.80;;
54881;SDS011;40775;51.448;4.742;2022-07-29T05:11:20;1.20;;;0.50;;
54881;SDS011;40775;51.448;4.742;2022-07-29T05:13:52;1.10;;;0.50;;
54881;SDS011;40775;51.448;4.742;2022-07-29T05:16:19;1.27;;;0.60;;
54881;SDS011;40775;51.448;4.742;2022-07-29T05:18:47;1.35;;;0.57;;
54881;SDS011;40775;51.448;4.742;2022-07-29T05:21:14;1.52;;;0.70;;
54881;SDS011;40775;51.448;4.742;2022-07-29T05:23:42;1.88;;;0.73;;
54881;SDS011;40775;51.448;4.742;2022-07-29T05:26:09;1.27;;;0.65;;
54881;SDS011;40775;51.448;4.742;2022-07-29T05:28:37;1.27;;;0.60;;
54881;SDS011;40775;51.448;4.742;2022-07-29T05:31:04;1.48;;;0.63;;
54881;SDS011;40775;51.448;4.742;2022-07-29T05:33:32;1.15;;;0.70;;
54881;SDS011;40775;51.448;4.742;2022-07-29T05:36:05;1.40;;;0.70;;
54881;SDS011;40775;51.448;4.742;2022-07-29T05:38:36;1.88;;;0.95;;
54881;SDS011;40775;51.448;4.742;2022-07-29T05:41:04;2.03;;;0.70;;
54881;SDS011;40775;51.448;4.742;2022-07-29T05:43:32;1.83;;;0.70;;
54881;SDS011;40775;51.448;4.742;2022-07-29T05:46:00;2.73;;;0.80;;
54881;SDS011;40775;51.448;4.742;2022-07-29T05:48:27;1.40;;;0.77;;
54881;SDS011;40775;51.448;4.742;2022-07-29T05:50:55;1.92;;;0.77;;
54881;SDS011;40775;51.448;4.742;2022-07-29T05:53:22;1.13;;;0.60;;
54881;SDS011;40775;51.448;4.742;2022-07-29T05:55:50;1.25;;;0.73;;
54881;SDS011;40775;51.448;4.742;2022-07-29T05:58:18;1.00;;;0.70;;
54881;SDS011;40775;51.448;4.742;2022-07-29T06:00:46;1.30;;;0.77;;
54881;SDS011;40775;51.448;4.742;2022-07-29T06:03:13;1.45;;;0.70;;
54881;SDS011;40775;51.448;4.742;2022-07-29T06:05:40;1.27;;;0.60;;
54881;SDS011;40775;51.448;4.742;2022-07-29T06:08:08;1.85;;;0.90;;
54881;SDS011;40775;51.448;4.742;2022-07-29T06:10:35;1.52;;;0.63;;
54881;SDS011;40775;51.448;4.742;2022-07-29T06:13:03;2.50;;;0.63;;
54881;SDS011;40775;51.448;4.742;2022-07-29T06:15:31;0.65;;;0.50;;
54881;SDS011;40775;51.448;4.742;2022-07-29T06:17:59;0.90;;;0.70;;
54881;SDS011;40775;51.448;4.742;2022-07-29T06:20:30;1.63;;;0.65;;
54881;SDS011;40775;51.448;4.742;2022-07-29T06:22:58;0.80;;;0.50;;
54881;SDS011;40775;51.448;4.742;2022-07-29T06:25:26;1.70;;;0.68;;
54881;SDS011;40775;51.448;4.742;2022-07-29T06:27:58;0.95;;;0.47;;
54881;SDS011;40775;51.448;4.742;2022-07-29T06:30:25;2.08;;;0.68;;
54881;SDS011;40775;51.448;4.742;2022-07-29T06:32:54;1.30;;;0.70;;
54881;SDS011;40775;51.448;4.742;2022-07-29T06:35:22;1.10;;;0.68;;
54881;SDS011;40775;51.448;4.742;2022-07-29T06:38:07;1.00;;;0.50;;
54881;SDS011;40775;51.448;4.742;2022-07-29T06:40:55;0.73;;;0.55;;
54881;SDS011;40775;51.448;4.742;2022-07-29T06:46:20;1.05;;;0.57;;
54881;SDS011;40775;51.448;4.742;2022-07-29T06:48:49;1.60;;;0.70;;
54881;SDS011;40775;51.448;4.742;2022-07-29T06:51:17;1.85;;;0.77;;
54881;SDS011;40775;51.448;4.742;2022-07-29T06:53:48;1.27;;;0.60;;
54881;SDS011;40775;51.448;4.742;2022-07-29T06:56:31;1.70;;;0.70;;
54881;SDS011;40775;51.448;4.742;2022-07-29T06:59:05;0.82;;;0.52;;
54881;SDS011;40775;51.448;4.742;2022-07-29T07:01:33;1.17;;;0.50;;
54881;SDS011;40775;51.448;4.742;2022-07-29T07:04:04;1.80;;;0.65;;
54881;SDS011;40775;51.448;4.742;2022-07-29T07:06:32;1.30;;;0.50;;
54881;SDS011;40775;51.448;4.742;2022-07-29T07:08:59;1.42;;;0.65;;
54881;SDS011;40775;51.448;4.742;2022-07-29T07:11:27;1.90;;;0.80;;
54881;SDS011;40775;51.448;4.742;2022-07-29T07:13:54;1.15;;;0.60;;
54881;SDS011;40775;51.448;4.742;2022-07-29T07:16:28;1.00;;;0.50;;
54881;SDS011;40775;51.448;4.742;2022-07-29T07:18:57;0.77;;;0.50;;
54881;SDS011;40775;51.448;4.742;2022-07-29T07:21:24;1.30;;;0.65;;
54881;SDS011;40775;51.448;4.742;2022-07-29T07:23:55;1.48;;;0.60;;
54881;SDS011;40775;51.448;4.742;2022-07-29T07:26:22;1.27;;;0.70;;
54881;SDS011;40775;51.448;4.742;2022-07-29T07:28:50;1.67;;;0.47;;
54881;SDS011;40775;51.448;4.742;2022-07-29T07:31:17;0.80;;;0.47;;
54881;SDS011;40775;51.448;4.742;2022-07-29T07:33:45;0.85;;;0.50;;
54881;SDS011;40775;51.448;4.742;2022-07-29T07:36:12;0.60;;;0.40;;
54881;SDS011;40775;51.448;4.742;2022-07-29T07:38:40;1.23;;;0.60;;
54881;SDS011;40775;51.448;4.742;2022-07-29T07:41:07;1.58;;;0.65;;
54881;SDS011;40775;51.448;4.742;2022-07-29T07:43:34;1.10;;;0.50;;
54881;SDS011;40775;51.448;4.742;2022-07-29T07:46:02;2.10;;;0.60;;
54881;SDS011;40775;51.448;4.742;2022-07-29T07:48:29;0.85;;;0.45;;
54881;SDS011;40775;51.448;4.742;2022-07-29T07:50:57;2.28;;;0.60;;
54881;SDS011;40775;51.448;4.742;2022-07-29T07:53:24;2.65;;;0.85;;
54881;SDS011;40775;51.448;4.742;2022-07-29T07:55:52;1.20;;;0.60;;
54881;SDS011;40775;51.448;4.742;2022-07-29T07:58:37;1.13;;;0.50;;
54881;SDS011;40775;51.448;4.742;2022-07-29T08:01:05;0.82;;;0.50;;
54881;SDS011;40775;51.448;4.742;2022-07-29T08:03:33;1.30;;;0.60;;
54881;SDS011;40775;51.448;4.742;2022-07-29T08:06:01;1.20;;;0.40;;
54881;SDS011;40775;51.448;4.742;2022-07-29T08:08:29;1.80;;;0.60;;
54881;SDS011;40775;51.448;4.742;2022-07-29T08:10:56;0.60;;;0.40;;
54881;SDS011;40775;51.448;4.742;2022-07-29T08:13:30;0.80;;;0.40;;
54881;SDS011;40775;51.448;4.742;2022-07-29T08:15:58;1.23;;;0.50;;
54881;SDS011;40775;51.448;4.742;2022-07-29T08:18:28;1.65;;;0.60;;
54881;SDS011;40775;51.448;4.742;2022-07-29T08:20:57;1.05;;;0.50;;
54881;SDS011;40775;51.448;4.742;2022-07-29T08:23:25;0.85;;;0.32;;
54881;SDS011;40775;51.448;4.742;2022-07-29T08:25:59;1.15;;;0.63;;
54881;SDS011;40775;51.448;4.742;2022-07-29T08:28:27;1.67;;;0.63;;
54881;SDS011;40775;51.448;4.742;2022-07-29T08:30:54;1.10;;;0.57;;
54881;SDS011;40775;51.448;4.742;2022-07-29T08:33:21;3.95;;;0.90;;
54881;SDS011;40775;51.448;4.742;2022-07-29T08:35:49;1.92;;;1.13;;
54881;SDS011;40775;51.448;4.742;2022-07-29T08:38:16;0.98;;;0.50;;
54881;SDS011;40775;51.448;4.742;2022-07-29T08:40:44;1.08;;;0.40;;
54881;SDS011;40775;51.448;4.742;2022-07-29T08:43:12;1.27;;;0.60;;
54881;SDS011;40775;51.448;4.742;2022-07-29T08:45:46;0.80;;;0.50;;
54881;SDS011;40775;51.448;4.742;2022-07-29T08:48:20;1.30;;;0.50;;
54881;SDS011;40775;51.448;4.742;2022-07-29T08:50:55;0.90;;;0.60;;
54881;SDS011;40775;51.448;4.742;2022-07-29T08:53:25;1.92;;;0.68;;
54881;SDS011;40775;51.448;4.742;2022-07-29T08:55:54;1.47;;;0.60;;
54881;SDS011;40775;51.448;4.742;2022-07-29T08:58:23;3.63;;;1.35;;
54881;SDS011;40775;51.448;4.742;2022-07-29T09:00:53;1.77;;;0.50;;
54881;SDS011;40775;51.448;4.742;2022-07-29T09:03:24;1.77;;;0.57;;
54881;SDS011;40775;51.448;4.742;2022-07-29T09:05:53;1.80;;;0.88;;
54881;SDS011;40775;51.448;4.742;2022-07-29T09:08:21;4.07;;;1.50;;
54881;SDS011;40775;51.448;4.742;2022-07-29T09:10:49;4.07;;;2.00;;
54881;SDS011;40775;51.448;4.742;2022-07-29T09:13:17;4.82;;;1.88;;
54881;SDS011;40775;51.448;4.742;2022-07-29T09:15:44;4.20;;;1.20;;
54881;SDS011;40775;51.448;4.742;2022-07-29T09:18:12;1.20;;;0.60;;
54881;SDS011;40775;51.448;4.742;2022-07-29T09:20:59;0.90;;;0.52;;
54881;SDS011;40775;51.448;4.742;2022-07-29T09:24:01;0.70;;;0.40;;
54881;SDS011;40775;51.448;4.742;2022-07-29T09:26:31;1.25;;;0.40;;
54881;SDS011;40775;51.448;4.742;2022-07-29T09:28:59;1.70;;;0.75;;
54881;SDS011;40775;51.448;4.742;2022-07-29T09:31:34;1.13;;;0.60;;
54881;SDS011;40775;51.448;4.742;2022-07-29T09:34:03;0.90;;;0.40;;
54881;SDS011;40775;51.448;4.742;2022-07-29T09:36:42;6.18;;;1.48;;
54881;SDS011;40775;51.448;4.742;2022-07-29T09:39:11;4.30;;;1.75;;
54881;SDS011;40775;51.448;4.742;2022-07-29T09:44:21;3.22;;;1.42;;
54881;SDS011;40775;51.448;4.742;2022-07-29T09:46:56;3.97;;;1.70;;
54881;SDS011;40775;51.448;4.742;2022-07-29T09:49:35;7.40;;;1.30;;
54881;SDS011;40775;51.448;4.742;2022-07-29T09:52:17;1.42;;;0.75;;
54881;SDS011;40775;51.448;4.742;2022-07-29T09:54:44;0.68;;;0.40;;
54881;SDS011;40775;51.448;4.742;2022-07-29T10:00:13;0.60;;;0.43;;
54881;SDS011;40775;51.448;4.742;2022-07-29T10:02:44;2.00;;;0.98;;
54881;SDS011;40775;51.448;4.742;2022-07-29T10:05:23;4.03;;;1.33;;
54881;SDS011;40775;51.448;4.742;2022-07-29T10:08:00;2.97;;;1.17;;
54881;SDS011;40775;51.448;4.742;2022-07-29T10:10:29;3.80;;;1.52;;
54881;SDS011;40775;51.448;4.742;2022-07-29T10:13:04;1.95;;;0.60;;
54881;SDS011;40775;51.448;4.742;2022-07-29T10:15:40;4.22;;;1.70;;
54881;SDS011;40775;51.448;4.742;2022-07-29T10:18:11;3.20;;;1.42;;
54881;SDS011;40775;51.448;4.742;2022-07-29T10:20:39;4.38;;;1.35;;
54881;SDS011;40775;51.448;4.742;2022-07-29T10:23:08;2.63;;;1.10;;
54881;SDS011;40775;51.448;4.742;2022-07-29T10:25:35;1.73;;;0.60;;
54881;SDS011;40775;51.448;4.742;2022-07-29T10:28:05;1.92;;;0.50;;
54881;SDS011;40775;51.448;4.742;2022-07-29T10:30:32;3.08;;;0.77;;
54881;SDS011;40775;51.448;4.742;2022-07-29T10:41:50;4.10;;;1.48;;
54881;SDS011;40775;51.448;4.742;2022-07-29T10:44:24;3.43;;;1.33;;
54881;SDS011;40775;51.448;4.742;2022-07-29T10:46:53;2.33;;;1.17;;
54881;SDS011;40775;51.448;4.742;2022-07-29T10:49:24;1.40;;;0.93;;
54881;SDS011;40775;51.448;4.742;2022-07-29T10:52:13;1.75;;;0.70;;
54881;SDS011;40775;51.448;4.742;2022-07-29T10:54:41;2.47;;;1.20;;
54881;SDS011;40775;51.448;4.742;2022-07-29T11:02:52;3.05;;;1.08;;
54881;SDS011;40775;51.448;4.742;2022-07-29T11:05:22;6.68;;;1.30;;
54881;SDS011;40775;51.448;4.742;2022-07-29T11:10:52;2.33;;;0.80;;
54881;SDS011;40775;51.448;4.742;2022-07-29T11:16:14;2.35;;;0.90;;
54881;SDS011;40775;51.448;4.742;2022-07-29T11:21:39;4.15;;;1.10;;
54881;SDS011;40775;51.448;4.742;2022-07-29T11:24:25;1.67;;;1.10;;
54881;SDS011;40775;51.448;4.742;2022-07-29T11:32:21;2.57;;;1.17;;
54881;SDS011;40775;51.448;4.742;2022-07-29T11:35:10;1.95;;;0.98;;
54881;SDS011;40775;51.448;4.742;2022-07-29T11:37:43;2.25;;;1.00;;
54881;SDS011;40775;51.448;4.742;2022-07-29T11:40:21;2.92;;;1.20;;
54881;SDS011;40775;51.448;4.742;2022-07-29T11:42:49;4.68;;;1.40;;
54881;SDS011;40775;51.448;4.742;2022-07-29T11:45:21;2.30;;;0.95;;
54881;SDS011;40775;51.448;4.742;2022-07-29T11:48:14;2.22;;;0.93;;
54881;SDS011;40775;51.448;4.742;2022-07-29T11:50:57;1.30;;;0.57;;
54881;SDS011;40775;51.448;4.742;2022-07-29T11:53:25;2.10;;;1.20;;
54881;SDS011;40775;51.448;4.742;2022-07-29T11:55:57;0.88;;;0.40;;
54881;SDS011;40775;51.448;4.742;2022-07-29T11:58:28;3.03;;;1.10;;
54881;SDS011;40775;51.448;4.742;2022-07-29T12:00:55;1.77;;;0.90;;
54881;SDS011;40775;51.448;4.742;2022-07-29T12:03:44;1.52;;;0.50;;
54881;SDS011;40775;51.448;4.742;2022-07-29T12:06:13;2.50;;;1.10;;
54881;SDS011;40775;51.448;4.742;2022-07-29T12:08:43;1.58;;;0.50;;
54881;SDS011;40775;51.448;4.742;2022-07-29T12:11:18;2.60;;;0.75;;
54881;SDS011;40775;51.448;4.742;2022-07-29T12:13:48;1.67;;;0.57;;
54881;SDS011;40775;51.448;4.742;2022-07-29T12:16:17;0.85;;;0.45;;
54881;SDS011;40775;51.448;4.742;2022-07-29T12:18:57;3.67;;;0.70;;
54881;SDS011;40775;51.448;4.742;2022-07-29T12:21:27;2.88;;;1.25;;
54881;SDS011;40775;51.448;4.742;2022-07-29T12:24:22;2.20;;;0.85;;
54881;SDS011;40775;51.448;4.742;2022-07-29T12:26:56;3.60;;;1.00;;
54881;SDS011;40775;51.448;4.742;2022-07-29T12:29:25;1.05;;;0.70;;
54881;SDS011;40775;51.448;4.742;2022-07-29T12:32:01;1.50;;;0.60;;
54881;SDS011;40775;51.448;4.742;2022-07-29T12:34:30;1.00;;;0.50;;
54881;SDS011;40775;51.448;4.742;2022-07-29T12:36:58;1.52;;;0.50;;
54881;SDS011;40775;51.448;4.742;2022-07-29T12:39:27;2.45;;;1.00;;
54881;SDS011;40775;51.448;4.742;2022-07-29T12:41:54;1.00;;;0.63;;
54881;SDS011;40775;51.448;4.742;2022-07-29T12:44:46;0.47;;;0.40;;
54881;SDS011;40775;51.448;4.742;2022-07-29T12:47:17;0.85;;;0.40;;
54881;SDS011;40775;51.448;4.742;2022-07-29T12:49:46;2.80;;;1.40;;
54881;SDS011;40775;51.448;4.742;2022-07-29T12:52:23;5.45;;;1.90;;
54881;SDS011;40775;51.448;4.742;2022-07-29T12:54:58;3.30;;;1.40;;
54881;SDS011;40775;51.448;4.742;2022-07-29T12:57:28;3.78;;;1.40;;
54881;SDS011;40775;51.448;4.742;2022-07-29T13:02:31;3.10;;;0.52;;
54881;SDS011;40775;51.448;4.742;2022-07-29T13:04:59;1.48;;;0.57;;
54881;SDS011;40775;51.448;4.742;2022-07-29T13:07:28;2.47;;;1.23;;
54881;SDS011;40775;51.448;4.742;2022-07-29T13:10:19;5.03;;;1.85;;
54881;SDS011;40775;51.448;4.742;2022-07-29T13:15:35;2.40;;;1.08;;
54881;SDS011;40775;51.448;4.742;2022-07-29T13:18:05;3.33;;;1.52;;
54881;SDS011;40775;51.448;4.742;2022-07-29T13:20:52;4.63;;;1.27;;
54881;SDS011;40775;51.448;4.742;2022-07-29T13:23:20;1.60;;;0.90;;
54881;SDS011;40775;51.448;4.742;2022-07-29T13:25:48;2.05;;;1.30;;
54881;SDS011;40775;51.448;4.742;2022-07-29T13:28:15;4.30;;;1.75;;
54881;SDS011;40775;51.448;4.742;2022-07-29T13:30:43;2.25;;;1.15;;
54881;SDS011;40775;51.448;4.742;2022-07-29T13:33:11;0.60;;;0.40;;
54881;SDS011;40775;51.448;4.742;2022-07-29T13:35:38;0.80;;;0.43;;
54881;SDS011;40775;51.448;4.742;2022-07-29T13:38:06;1.60;;;0.40;;
54881;SDS011;40775;51.448;4.742;2022-07-29T13:40:33;3.50;;;1.45;;
54881;SDS011;40775;51.448;4.742;2022-07-29T13:43:01;1.27;;;0.57;;
54881;SDS011;40775;51.448;4.742;2022-07-29T13:45:29;1.38;;;0.70;;
54881;SDS011;40775;51.448;4.742;2022-07-29T13:47:56;3.95;;;1.90;;
54881;SDS011;40775;51.448;4.742;2022-07-29T13:50:27;3.58;;;1.55;;
54881;SDS011;40775;51.448;4.742;2022-07-29T13:52:54;0.88;;;0.63;;
54881;SDS011;40775;51.448;4.742;2022-07-29T13:55:22;1.30;;;0.60;;
54881;SDS011;40775;51.448;4.742;2022-07-29T13:57:51;3.28;;;1.27;;
54881;SDS011;40775;51.448;4.742;2022-07-29T14:00:18;2.65;;;1.30;;
54881;SDS011;40775;51.448;4.742;2022-07-29T14:02:46;4.23;;;1.70;;
54881;SDS011;40775;51.448;4.742;2022-07-29T14:05:13;3.45;;;1.55;;
54881;SDS011;40775;51.448;4.742;2022-07-29T14:07:41;4.20;;;1.20;;
54881;SDS011;40775;51.448;4.742;2022-07-29T14:10:08;4.20;;;1.70;;
54881;SDS011;40775;51.448;4.742;2022-07-29T14:12:36;5.72;;;1.60;;
54881;SDS011;40775;51.448;4.742;2022-07-29T14:15:04;2.38;;;1.38;;
54881;SDS011;40775;51.448;4.742;2022-07-29T14:17:33;4.07;;;1.35;;
54881;SDS011;40775;51.448;4.742;2022-07-29T14:20:00;2.80;;;1.57;;
54881;SDS011;40775;51.448;4.742;2022-07-29T14:22:28;3.03;;;1.30;;
54881;SDS011;40775;51.448;4.742;2022-07-29T14:24:56;4.65;;;2.10;;
54881;SDS011;40775;51.448;4.742;2022-07-29T14:27:30;5.10;;;2.17;;
54881;SDS011;40775;51.448;4.742;2022-07-29T14:30:03;3.55;;;1.80;;
54881;SDS011;40775;51.448;4.742;2022-07-29T14:32:32;2.75;;;1.48;;
54881;SDS011;40775;51.448;4.742;2022-07-29T14:34:59;3.77;;;2.00;;
54881;SDS011;40775;51.448;4.742;2022-07-29T14:37:27;5.50;;;2.40;;
54881;SDS011;40775;51.448;4.742;2022-07-29T14:40:05;4.28;;;2.03;;
54881;SDS011;40775;51.448;4.742;2022-07-29T14:42:34;2.40;;;1.60;;
54881;SDS011;40775;51.448;4.742;2022-07-29T14:45:02;6.03;;;2.38;;
54881;SDS011;40775;51.448;4.742;2022-07-29T14:47:33;3.03;;;1.25;;
54881;SDS011;40775;51.448;4.742;2022-07-29T14:50:00;5.03;;;2.03;;
54881;SDS011;40775;51.448;4.742;2022-07-29T14:52:29;5.55;;;1.88;;
54881;SDS011;40775;51.448;4.742;2022-07-29T14:54:56;6.50;;;2.05;;
54881;SDS011;40775;51.448;4.742;2022-07-29T14:57:25;5.47;;;2.70;;
54881;SDS011;40775;51.448;4.742;2022-07-29T14:59:52;5.32;;;2.35;;
54881;SDS011;40775;51.448;4.742;2022-07-29T15:02:20;1.63;;;0.88;;
54881;SDS011;40775;51.448;4.742;2022-07-29T15:04:53;2.90;;;1.05;;
54881;SDS011;40775;51.448;4.742;2022-07-29T15:07:20;2.58;;;0.98;;
54881;SDS011;40775;51.448;4.742;2022-07-29T15:09:48;3.27;;;1.10;;
54881;SDS011;40775;51.448;4.742;2022-07-29T15:12:15;1.42;;;0.88;;
54881;SDS011;40775;51.448;4.742;2022-07-29T15:14:42;1.30;;;0.75;;
54881;SDS011;40775;51.448;4.742;2022-07-29T15:17:11;2.67;;;1.13;;
54881;SDS011;40775;51.448;4.742;2022-07-29T15:19:38;1.93;;;1.10;;
54881;SDS011;40775;51.448;4.742;2022-07-29T15:22:10;1.70;;;0.90;;
54881;SDS011;40775;51.448;4.742;2022-07-29T15:24:37;1.75;;;0.85;;
54881;SDS011;40775;51.448;4.742;2022-07-29T15:27:05;1.47;;;0.80;;
54881;SDS011;40775;51.448;4.742;2022-07-29T15:29:32;1.05;;;0.70;;
54881;SDS011;40775;51.448;4.742;2022-07-29T15:32:00;1.17;;;0.73;;
54881;SDS011;40775;51.448;4.742;2022-07-29T15:34:28;1.80;;;0.88;;
54881;SDS011;40775;51.448;4.742;2022-07-29T15:36:55;1.70;;;1.00;;
54881;SDS011;40775;51.448;4.742;2022-07-29T15:39:22;1.35;;;0.80;;
54881;SDS011;40775;51.448;4.742;2022-07-29T15:41:50;2.45;;;1.00;;
54881;SDS011;40775;51.448;4.742;2022-07-29T15:44:18;1.88;;;0.70;;
54881;SDS011;40775;51.448;4.742;2022-07-29T15:46:46;1.60;;;0.80;;
54881;SDS011;40775;51.448;4.742;2022-07-29T15:49:31;0.93;;;0.60;;
54881;SDS011;40775;51.448;4.742;2022-07-29T15:52:15;1.73;;;0.70;;
54881;SDS011;40775;51.448;4.742;2022-07-29T15:54:51;0.93;;;0.70;;
54881;SDS011;40775;51.448;4.742;2022-07-29T15:57:20;1.20;;;0.80;;
54881;SDS011;40775;51.448;4.742;2022-07-29T15:59:48;2.00;;;0.88;;
54881;SDS011;40775;51.448;4.742;2022-07-29T16:02:17;2.25;;;0.90;;
54881;SDS011;40775;51.448;4.742;2022-07-29T16:04:44;3.30;;;1.20;;
54881;SDS011;40775;51.448;4.742;2022-07-29T16:07:12;1.33;;;0.82;;
54881;SDS011;40775;51.448;4.742;2022-07-29T16:09:40;1.60;;;0.90;;
54881;SDS011;40775;51.448;4.742;2022-07-29T16:12:08;2.45;;;0.98;;
54881;SDS011;40775;51.448;4.742;2022-07-29T16:14:41;1.97;;;0.97;;